sensor_id;sensor_type;location;lat;lon;timestamp;temperature;humidity
3478;DHT22;37937;61.490;23.506;2024-03-02T00:00:01;0.20;99.90
3478;DHT22;37937;61.490;23.506;2024-03-02T00:02:39;0.10;99.90
3478;DHT22;37937;61.490;23.506;2024-03-02T00:05:05;0.20;99.90
3478;DHT22;37937;61.490;23.506;2024-03-02T00:07:31;0.20;99.90
3478;DHT22;37937;61.490;23.506;2024-03-02T00:09:57;0.10;99.90
3478;DHT22;37937;61.490;23.506;2024-03-02T00:12:22;0.10;99.90
3478;DHT22;37937;61.490;23.506;2024-03-02T00:14:48;0.10;99.90
3478;DHT22;37937;61.490;23.506;2024-03-02T00:17:17;0.20;99.90
3478;DHT22;37937;61.490;23.506;2024-03-02T00:19:44;0.20;99.90
3478;DHT22;37937;61.490;23.506;2024-03-02T00:22:10;0.20;99.90
3478;DHT22;37937;61.490;23.506;2024-03-02T00:24:35;0.10;99.90
3478;DHT22;37937;61.490;23.506;2024-03-02T00:27:01;0.20;99.90
3478;DHT22;37937;61.490;23.506;2024-03-02T00:29:29;0.20;99.90
3478;DHT22;37937;61.490;23.506;2024-03-02T00:31:54;0.20;99.90
3478;DHT22;37937;61.490;23.506;2024-03-02T00:34:21;0.20;99.90
3478;DHT22;37937;61.490;23.506;2024-03-02T00:36:47;0.20;99.90
3478;DHT22;37937;61.490;23.506;2024-03-02T00:39:14;0.20;99.90
3478;DHT22;37937;61.490;23.506;2024-03-02T00:41:40;0.10;99.90
3478;DHT22;37937;61.490;23.506;2024-03-02T00:44:07;0.20;99.90
3478;DHT22;37937;61.490;23.506;2024-03-02T00:49:00;0.10;99.90
3478;DHT22;37937;61.490;23.506;2024-03-02T00:51:27;0.20;99.90
3478;DHT22;37937;61.490;23.506;2024-03-02T00:53:54;0.20;99.90
3478;DHT22;37937;61.490;23.506;2024-03-02T00:56:22;0.20;99.90
3478;DHT22;37937;61.490;23.506;2024-03-02T00:58:49;0.10;99.90
3478;DHT22;37937;61.490;23.506;2024-03-02T01:01:15;0.10;99.90
3478;DHT22;37937;61.490;23.506;2024-03-02T01:03:41;0.10;99.90
3478;DHT22;37937;61.490;23.506;2024-03-02T01:06:07;0.20;99.90
3478;DHT22;37937;61.490;23.506;2024-03-02T01:08:33;0.20;99.90
3478;DHT22;37937;61.490;23.506;2024-03-02T01:10:59;0.20;99.90
3478;DHT22;37937;61.490;23.506;2024-03-02T01:13:25;0.20;99.90
3478;DHT22;37937;61.490;23.506;2024-03-02T01:15:50;0.20;99.90
3478;DHT22;37937;61.490;23.506;2024-03-02T01:18:16;0.10;99.90
3478;DHT22;37937;61.490;23.506;2024-03-02T01:20:41;0.20;99.90
3478;DHT22;37937;61.490;23.506;2024-03-02T01:23:07;0.20;99.90
3478;DHT22;37937;61.490;23.506;2024-03-02T01:25:32;0.10;99.90
3478;DHT22;37937;61.490;23.506;2024-03-02T01:27:58;0.10;99.90
3478;DHT22;37937;61.490;23.506;2024-03-02T01:30:24;0.10;99.90
3478;DHT22;37937;61.490;23.506;2024-03-02T01:32:49;0.10;99.90
3478;DHT22;37937;61.490;23.506;2024-03-02T01:35:15;0.10;99.90
3478;DHT22;37937;61.490;23.506;2024-03-02T01:37:40;0.10;99.90
3478;DHT22;37937;61.490;23.506;2024-03-02T01:40:06;0.10;99.90
3478;DHT22;37937;61.490;23.506;2024-03-02T01:42:37;0.10;99.90
3478;DHT22;37937;61.490;23.506;2024-03-02T01:45:07;0.20;99.90
3478;DHT22;37937;61.490;23.506;2024-03-02T01:47:33;0.10;99.90
3478;DHT22;37937;61.490;23.506;2024-03-02T01:49:59;0.10;99.90
3478;DHT22;37937;61.490;23.506;2024-03-02T01:52:24;0.10;99.90
3478;DHT22;37937;61.490;23.506;2024-03-02T01:54:50;0.10;99.90
3478;DHT22;37937;61.490;23.506;2024-03-02T01:57:16;0.10;99.90
3478;DHT22;37937;61.490;23.506;2024-03-02T01:59:41;0.10;99.90
3478;DHT22;37937;61.490;23.506;2024-03-02T02:02:07;0.10;99.90
3478;DHT22;37937;61.490;23.506;2024-03-02T02:04:33;0.10;99.90
3478;DHT22;37937;61.490;23.506;2024-03-02T02:06:59;0.10;99.90
3478;DHT22;37937;61.490;23.506;2024-03-02T02:09:24;0.20;99.90
3478;DHT22;37937;61.490;23.506;2024-03-02T02:11:50;0.10;99.90
3478;DHT22;37937;61.490;23.506;2024-03-02T02:14:16;0.10;99.90
3478;DHT22;37937;61.490;23.506;2024-03-02T02:16:42;0.10;99.90
3478;DHT22;37937;61.490;23.506;2024-03-02T02:19:07;0.10;99.90
3478;DHT22;37937;61.490;23.506;2024-03-02T02:21:33;0.10;99.90
3478;DHT22;37937;61.490;23.506;2024-03-02T02:23:59;0.10;99.90
3478;DHT22;37937;61.490;23.506;2024-03-02T02:26:24;0.10;99.90
3478;DHT22;37937;61.490;23.506;2024-03-02T02:28:50;0.10;99.90
3478;DHT22;37937;61.490;23.506;2024-03-02T02:31:15;0.10;99.90
3478;DHT22;37937;61.490;23.506;2024-03-02T02:33:41;0.10;99.90
3478;DHT22;37937;61.490;23.506;2024-03-02T02:36:07;0.10;99.90
3478;DHT22;37937;61.490;23.506;2024-03-02T02:38:33;0.20;99.90
3478;DHT22;37937;61.490;23.506;2024-03-02T02:41:00;0.10;99.90
3478;DHT22;37937;61.490;23.506;2024-03-02T02:43:26;0.10;99.90
3478;DHT22;37937;61.490;23.506;2024-03-02T02:45:51;0.10;99.90
3478;DHT22;37937;61.490;23.506;2024-03-02T02:48:17;0.10;99.90
3478;DHT22;37937;61.490;23.506;2024-03-02T02:50:43;0.10;99.90
3478;DHT22;37937;61.490;23.506;2024-03-02T02:53:08;0.10;99.90
3478;DHT22;37937;61.490;23.506;2024-03-02T02:55:35;0.10;99.90
3478;DHT22;37937;61.490;23.506;2024-03-02T02:58:03;0.10;99.90
3478;DHT22;37937;61.490;23.506;2024-03-02T03:00:28;0.00;99.90
3478;DHT22;37937;61.490;23.506;2024-03-02T03:02:54;0.10;99.90
3478;DHT22;37937;61.490;23.506;2024-03-02T03:05:19;0.00;99.90
3478;DHT22;37937;61.490;23.506;2024-03-02T03:07:45;0.10;99.90
3478;DHT22;37937;61.490;23.506;2024-03-02T03:10:11;0.10;99.90
3478;DHT22;37937;61.490;23.506;2024-03-02T03:12:37;0.10;99.90
3478;DHT22;37937;61.490;23.506;2024-03-02T03:15:03;0.10;99.90
3478;DHT22;37937;61.490;23.506;2024-03-02T03:17:29;0.10;99.90
3478;DHT22;37937;61.490;23.506;2024-03-02T03:19:55;0.10;99.90
3478;DHT22;37937;61.490;23.506;2024-03-02T03:22:21;0.10;99.90
3478;DHT22;37937;61.490;23.506;2024-03-02T03:24:46;0.10;99.90
3478;DHT22;37937;61.490;23.506;2024-03-02T03:27:12;0.00;99.90
3478;DHT22;37937;61.490;23.506;2024-03-02T03:29:37;0.10;99.90
3478;DHT22;37937;61.490;23.506;2024-03-02T03:32:03;0.10;99.90
3478;DHT22;37937;61.490;23.506;2024-03-02T03:34:32;0.10;99.90
3478;DHT22;37937;61.490;23.506;2024-03-02T03:36:57;0.10;99.90
3478;DHT22;37937;61.490;23.506;2024-03-02T03:39:23;0.10;99.90
3478;DHT22;37937;61.490;23.506;2024-03-02T03:41:49;0.00;99.90
3478;DHT22;37937;61.490;23.506;2024-03-02T03:44:14;0.10;99.90
3478;DHT22;37937;61.490;23.506;2024-03-02T03:46:40;0.10;99.90
3478;DHT22;37937;61.490;23.506;2024-03-02T03:49:05;0.10;99.90
3478;DHT22;37937;61.490;23.506;2024-03-02T03:51:31;0.10;99.90
3478;DHT22;37937;61.490;23.506;2024-03-02T03:53:57;0.10;99.90
3478;DHT22;37937;61.490;23.506;2024-03-02T03:56:22;0.10;99.90
3478;DHT22;37937;61.490;23.506;2024-03-02T03:58:48;0.10;99.90
3478;DHT22;37937;61.490;23.506;2024-03-02T04:01:13;0.10;99.90
3478;DHT22;37937;61.490;23.506;2024-03-02T04:03:39;0.00;99.90
3478;DHT22;37937;61.490;23.506;2024-03-02T04:06:04;0.00;99.90
3478;DHT22;37937;61.490;23.506;2024-03-02T04:08:30;0.00;99.90
3478;DHT22;37937;61.490;23.506;2024-03-02T04:10:56;0.00;99.90
3478;DHT22;37937;61.490;23.506;2024-03-02T04:13:21;0.00;99.90
3478;DHT22;37937;61.490;23.506;2024-03-02T04:15:47;0.00;99.90
3478;DHT22;37937;61.490;23.506;2024-03-02T04:18:12;0.00;99.90
3478;DHT22;37937;61.490;23.506;2024-03-02T04:20:38;0.00;99.90
3478;DHT22;37937;61.490;23.506;2024-03-02T04:23:04;0.00;99.90
3478;DHT22;37937;61.490;23.506;2024-03-02T04:25:29;0.00;99.90
3478;DHT22;37937;61.490;23.506;2024-03-02T04:27:55;0.00;99.90
3478;DHT22;37937;61.490;23.506;2024-03-02T04:30:20;0.00;99.90
3478;DHT22;37937;61.490;23.506;2024-03-02T04:32:46;0.00;99.90
3478;DHT22;37937;61.490;23.506;2024-03-02T04:35:12;0.00;99.90
3478;DHT22;37937;61.490;23.506;2024-03-02T04:37:40;0.00;99.90
3478;DHT22;37937;61.490;23.506;2024-03-02T04:40:06;0.00;99.90
3478;DHT22;37937;61.490;23.506;2024-03-02T04:42:34;0.00;99.90
3478;DHT22;37937;61.490;23.506;2024-03-02T04:45:00;0.00;99.90
3478;DHT22;37937;61.490;23.506;2024-03-02T04:47:26;0.00;99.90
3478;DHT22;37937;61.490;23.506;2024-03-02T04:49:52;0.00;99.90
3478;DHT22;37937;61.490;23.506;2024-03-02T04:52:17;0.00;99.90
3478;DHT22;37937;61.490;23.506;2024-03-02T04:54:43;0.00;99.90
3478;DHT22;37937;61.490;23.506;2024-03-02T04:57:27;0.00;99.90
3478;DHT22;37937;61.490;23.506;2024-03-02T04:59:53;0.10;99.90
3478;DHT22;37937;61.490;23.506;2024-03-02T05:02:18;0.00;99.90
3478;DHT22;37937;61.490;23.506;2024-03-02T05:04:44;0.00;99.90
3478;DHT22;37937;61.490;23.506;2024-03-02T05:07:09;0.00;99.90
3478;DHT22;37937;61.490;23.506;2024-03-02T05:09:35;0.00;99.90
3478;DHT22;37937;61.490;23.506;2024-03-02T05:12:01;-0.10;99.90
3478;DHT22;37937;61.490;23.506;2024-03-02T05:14:55;-0.10;99.90
3478;DHT22;37937;61.490;23.506;2024-03-02T05:17:20;0.00;99.90
3478;DHT22;37937;61.490;23.506;2024-03-02T05:19:46;-0.10;99.90
3478;DHT22;37937;61.490;23.506;2024-03-02T05:22:11;0.00;99.90
3478;DHT22;37937;61.490;23.506;2024-03-02T05:24:37;-0.10;99.90
3478;DHT22;37937;61.490;23.506;2024-03-02T05:27:02;0.00;99.90
3478;DHT22;37937;61.490;23.506;2024-03-02T05:29:28;0.00;99.90
3478;DHT22;37937;61.490;23.506;2024-03-02T05:31:53;0.00;99.90
3478;DHT22;37937;61.490;23.506;2024-03-02T05:34:19;-0.10;99.90
3478;DHT22;37937;61.490;23.506;2024-03-02T05:36:44;-0.10;99.90
3478;DHT22;37937;61.490;23.506;2024-03-02T05:39:10;-0.10;99.90
3478;DHT22;37937;61.490;23.506;2024-03-02T05:41:36;-0.10;99.90
3478;DHT22;37937;61.490;23.506;2024-03-02T05:44:01;-0.10;99.90
3478;DHT22;37937;61.490;23.506;2024-03-02T05:46:27;-0.10;99.90
3478;DHT22;37937;61.490;23.506;2024-03-02T05:48:53;-0.10;99.90
3478;DHT22;37937;61.490;23.506;2024-03-02T05:51:18;-0.10;99.90
3478;DHT22;37937;61.490;23.506;2024-03-02T05:53:44;-0.10;99.90
3478;DHT22;37937;61.490;23.506;2024-03-02T05:56:09;-0.10;99.90
3478;DHT22;37937;61.490;23.506;2024-03-02T05:58:35;-0.10;99.90
3478;DHT22;37937;61.490;23.506;2024-03-02T06:01:15;-0.10;99.90
3478;DHT22;37937;61.490;23.506;2024-03-02T06:03:40;-0.10;99.90
3478;DHT22;37937;61.490;23.506;2024-03-02T06:06:06;-0.10;99.90
3478;DHT22;37937;61.490;23.506;2024-03-02T06:08:31;-0.10;99.90
3478;DHT22;37937;61.490;23.506;2024-03-02T06:10:57;-0.10;99.90
3478;DHT22;37937;61.490;23.506;2024-03-02T06:13:23;-0.10;99.90
3478;DHT22;37937;61.490;23.506;2024-03-02T06:15:50;-0.10;99.90
3478;DHT22;37937;61.490;23.506;2024-03-02T06:18:16;0.00;99.90
3478;DHT22;37937;61.490;23.506;2024-03-02T06:20:41;0.00;99.90
3478;DHT22;37937;61.490;23.506;2024-03-02T06:23:07;0.00;99.90
3478;DHT22;37937;61.490;23.506;2024-03-02T06:25:33;0.00;99.90
3478;DHT22;37937;61.490;23.506;2024-03-02T06:27:59;0.00;99.90
3478;DHT22;37937;61.490;23.506;2024-03-02T06:30:24;0.00;99.90
3478;DHT22;37937;61.490;23.506;2024-03-02T06:32:50;0.00;99.90
3478;DHT22;37937;61.490;23.506;2024-03-02T06:35:15;0.10;99.90
3478;DHT22;37937;61.490;23.506;2024-03-02T06:37:41;0.00;99.90
3478;DHT22;37937;61.490;23.506;2024-03-02T06:40:07;0.10;99.90
3478;DHT22;37937;61.490;23.506;2024-03-02T06:42:35;0.10;99.90
3478;DHT22;37937;61.490;23.506;2024-03-02T06:45:01;0.20;99.90
3478;DHT22;37937;61.490;23.506;2024-03-02T06:47:27;0.20;99.90
3478;DHT22;37937;61.490;23.506;2024-03-02T06:49:53;0.20;99.90
3478;DHT22;37937;61.490;23.506;2024-03-02T06:52:19;0.10;99.90
3478;DHT22;37937;61.490;23.506;2024-03-02T06:54:45;0.20;99.90
3478;DHT22;37937;61.490;23.506;2024-03-02T06:57:11;0.20;99.90
3478;DHT22;37937;61.490;23.506;2024-03-02T06:59:36;0.30;99.90
3478;DHT22;37937;61.490;23.506;2024-03-02T07:02:02;0.30;99.90
3478;DHT22;37937;61.490;23.506;2024-03-02T07:04:27;0.30;99.90
3478;DHT22;37937;61.490;23.506;2024-03-02T07:06:53;0.20;99.90
3478;DHT22;37937;61.490;23.506;2024-03-02T07:09:20;0.30;99.90
3478;DHT22;37937;61.490;23.506;2024-03-02T07:11:48;0.20;99.90
3478;DHT22;37937;61.490;23.506;2024-03-02T07:14:14;0.30;99.90
3478;DHT22;37937;61.490;23.506;2024-03-02T07:16:40;0.30;99.90
3478;DHT22;37937;61.490;23.506;2024-03-02T07:19:06;0.20;99.90
3478;DHT22;37937;61.490;23.506;2024-03-02T07:21:32;0.30;99.90
3478;DHT22;37937;61.490;23.506;2024-03-02T07:23:58;0.30;99.90
3478;DHT22;37937;61.490;23.506;2024-03-02T07:26:24;0.40;99.90
3478;DHT22;37937;61.490;23.506;2024-03-02T07:28:50;0.30;99.90
3478;DHT22;37937;61.490;23.506;2024-03-02T07:31:16;0.30;99.90
3478;DHT22;37937;61.490;23.506;2024-03-02T07:33:43;0.30;99.90
3478;DHT22;37937;61.490;23.506;2024-03-02T07:36:09;0.50;99.90
3478;DHT22;37937;61.490;23.506;2024-03-02T07:38:34;0.50;99.90
3478;DHT22;37937;61.490;23.506;2024-03-02T07:41:00;0.50;99.90
3478;DHT22;37937;61.490;23.506;2024-03-02T07:43:26;0.40;99.90
3478;DHT22;37937;61.490;23.506;2024-03-02T07:45:52;0.50;99.90
3478;DHT22;37937;61.490;23.506;2024-03-02T07:48:18;0.60;99.90
3478;DHT22;37937;61.490;23.506;2024-03-02T07:50:43;0.50;99.90
3478;DHT22;37937;61.490;23.506;2024-03-02T07:53:09;0.60;99.90
3478;DHT22;37937;61.490;23.506;2024-03-02T07:55:34;0.40;99.90
3478;DHT22;37937;61.490;23.506;2024-03-02T07:58:00;0.40;99.90
3478;DHT22;37937;61.490;23.506;2024-03-02T08:00:26;0.50;99.90
3478;DHT22;37937;61.490;23.506;2024-03-02T08:02:52;0.50;99.90
3478;DHT22;37937;61.490;23.506;2024-03-02T08:05:18;0.60;99.90
3478;DHT22;37937;61.490;23.506;2024-03-02T08:07:44;0.50;99.90
3478;DHT22;37937;61.490;23.506;2024-03-02T08:10:10;0.60;99.90
3478;DHT22;37937;61.490;23.506;2024-03-02T08:12:35;0.60;99.90
3478;DHT22;37937;61.490;23.506;2024-03-02T08:15:01;0.70;99.90
3478;DHT22;37937;61.490;23.506;2024-03-02T08:17:27;0.80;99.90
3478;DHT22;37937;61.490;23.506;2024-03-02T08:19:52;0.70;99.90
3478;DHT22;37937;61.490;23.506;2024-03-02T08:22:18;0.70;99.90
3478;DHT22;37937;61.490;23.506;2024-03-02T08:24:43;0.80;99.90
3478;DHT22;37937;61.490;23.506;2024-03-02T08:27:09;0.70;99.90
3478;DHT22;37937;61.490;23.506;2024-03-02T08:29:35;0.70;99.90
3478;DHT22;37937;61.490;23.506;2024-03-02T08:32:00;0.60;99.90
3478;DHT22;37937;61.490;23.506;2024-03-02T08:34:26;0.60;99.90
3478;DHT22;37937;61.490;23.506;2024-03-02T08:36:51;0.60;99.90
3478;DHT22;37937;61.490;23.506;2024-03-02T08:39:17;0.60;99.90
3478;DHT22;37937;61.490;23.506;2024-03-02T08:41:45;0.70;99.90
3478;DHT22;37937;61.490;23.506;2024-03-02T08:44:10;0.70;99.90
3478;DHT22;37937;61.490;23.506;2024-03-02T08:46:36;0.70;99.90
3478;DHT22;37937;61.490;23.506;2024-03-02T08:49:02;0.70;99.90
3478;DHT22;37937;61.490;23.506;2024-03-02T08:51:28;0.80;99.90
3478;DHT22;37937;61.490;23.506;2024-03-02T08:53:54;0.70;99.90
3478;DHT22;37937;61.490;23.506;2024-03-02T08:56:19;0.70;99.90
3478;DHT22;37937;61.490;23.506;2024-03-02T08:58:47;0.70;99.90
3478;DHT22;37937;61.490;23.506;2024-03-02T09:01:12;0.70;99.90
3478;DHT22;37937;61.490;23.506;2024-03-02T09:03:38;0.60;99.90
3478;DHT22;37937;61.490;23.506;2024-03-02T09:06:03;0.70;99.90
3478;DHT22;37937;61.490;23.506;2024-03-02T09:08:29;0.60;99.90
3478;DHT22;37937;61.490;23.506;2024-03-02T09:10:55;0.70;99.90
3478;DHT22;37937;61.490;23.506;2024-03-02T09:13:21;0.70;99.90
3478;DHT22;37937;61.490;23.506;2024-03-02T09:15:47;0.60;99.90
3478;DHT22;37937;61.490;23.506;2024-03-02T09:18:13;0.70;99.90
3478;DHT22;37937;61.490;23.506;2024-03-02T09:20:38;0.70;99.90
3478;DHT22;37937;61.490;23.506;2024-03-02T09:23:04;0.80;99.90
3478;DHT22;37937;61.490;23.506;2024-03-02T09:25:29;0.80;99.90
3478;DHT22;37937;61.490;23.506;2024-03-02T09:27:55;0.80;99.90
3478;DHT22;37937;61.490;23.506;2024-03-02T09:30:21;0.70;99.90
3478;DHT22;37937;61.490;23.506;2024-03-02T09:32:46;0.80;99.90
3478;DHT22;37937;61.490;23.506;2024-03-02T09:35:12;0.80;99.90
3478;DHT22;37937;61.490;23.506;2024-03-02T09:37:37;0.70;99.90
3478;DHT22;37937;61.490;23.506;2024-03-02T09:40:03;0.70;99.90
3478;DHT22;37937;61.490;23.506;2024-03-02T09:42:29;0.80;99.90
3478;DHT22;37937;61.490;23.506;2024-03-02T09:44:54;0.70;99.90
3478;DHT22;37937;61.490;23.506;2024-03-02T09:47:20;0.80;99.90
3478;DHT22;37937;61.490;23.506;2024-03-02T09:49:46;0.80;99.90
3478;DHT22;37937;61.490;23.506;2024-03-02T09:52:11;0.90;99.90
3478;DHT22;37937;61.490;23.506;2024-03-02T09:54:40;0.90;99.90
3478;DHT22;37937;61.490;23.506;2024-03-02T09:57:06;0.90;99.90
3478;DHT22;37937;61.490;23.506;2024-03-02T09:59:31;0.90;99.90
3478;DHT22;37937;61.490;23.506;2024-03-02T10:01:58;1.00;99.90
3478;DHT22;37937;61.490;23.506;2024-03-02T10:04:27;0.90;99.90
3478;DHT22;37937;61.490;23.506;2024-03-02T10:09:37;0.70;99.90
3478;DHT22;37937;61.490;23.506;2024-03-02T10:12:03;0.80;99.90
3478;DHT22;37937;61.490;23.506;2024-03-02T10:14:29;0.70;99.90
3478;DHT22;37937;61.490;23.506;2024-03-02T10:16:55;0.70;99.90
3478;DHT22;37937;61.490;23.506;2024-03-02T10:19:26;0.80;99.90
3478;DHT22;37937;61.490;23.506;2024-03-02T10:21:53;0.80;99.90
3478;DHT22;37937;61.490;23.506;2024-03-02T10:24:20;0.80;99.90
3478;DHT22;37937;61.490;23.506;2024-03-02T10:26:46;0.80;99.90
3478;DHT22;37937;61.490;23.506;2024-03-02T10:29:11;1.00;99.90
3478;DHT22;37937;61.490;23.506;2024-03-02T10:31:38;0.90;99.90
3478;DHT22;37937;61.490;23.506;2024-03-02T10:34:03;0.90;99.90
3478;DHT22;37937;61.490;23.506;2024-03-02T10:36:29;1.00;99.90
3478;DHT22;37937;61.490;23.506;2024-03-02T10:38:56;1.00;99.90
3478;DHT22;37937;61.490;23.506;2024-03-02T10:41:24;0.90;99.90
3478;DHT22;37937;61.490;23.506;2024-03-02T10:43:52;1.00;99.90
3478;DHT22;37937;61.490;23.506;2024-03-02T10:46:26;1.10;99.90
3478;DHT22;37937;61.490;23.506;2024-03-02T10:48:53;1.10;99.90
3478;DHT22;37937;61.490;23.506;2024-03-02T10:51:18;1.00;99.90
3478;DHT22;37937;61.490;23.506;2024-03-02T10:53:44;1.10;99.90
3478;DHT22;37937;61.490;23.506;2024-03-02T10:56:09;1.10;99.90
3478;DHT22;37937;61.490;23.506;2024-03-02T10:58:35;1.20;99.90
3478;DHT22;37937;61.490;23.506;2024-03-02T11:01:02;1.20;99.90
3478;DHT22;37937;61.490;23.506;2024-03-02T11:03:33;1.20;99.90
3478;DHT22;37937;61.490;23.506;2024-03-02T11:06:00;1.10;99.90
3478;DHT22;37937;61.490;23.506;2024-03-02T11:08:26;1.20;99.90
3478;DHT22;37937;61.490;23.506;2024-03-02T11:10:58;1.10;99.90
3478;DHT22;37937;61.490;23.506;2024-03-02T11:13:31;1.20;99.90
3478;DHT22;37937;61.490;23.506;2024-03-02T11:15:59;1.10;99.90
3478;DHT22;37937;61.490;23.506;2024-03-02T11:18:24;1.10;99.90
3478;DHT22;37937;61.490;23.506;2024-03-02T11:20:50;1.20;99.90
3478;DHT22;37937;61.490;23.506;2024-03-02T11:23:16;1.20;99.90
3478;DHT22;37937;61.490;23.506;2024-03-02T11:25:42;1.10;99.90
3478;DHT22;37937;61.490;23.506;2024-03-02T11:28:07;1.20;99.90
3478;DHT22;37937;61.490;23.506;2024-03-02T11:33:03;1.30;99.90
3478;DHT22;37937;61.490;23.506;2024-03-02T11:35:35;1.20;99.90
3478;DHT22;37937;61.490;23.506;2024-03-02T11:38:01;1.20;99.90
3478;DHT22;37937;61.490;23.506;2024-03-02T11:40:27;1.20;99.90
3478;DHT22;37937;61.490;23.506;2024-03-02T11:42:53;1.30;99.90
3478;DHT22;37937;61.490;23.506;2024-03-02T11:45:24;1.30;99.90
3478;DHT22;37937;61.490;23.506;2024-03-02T11:47:50;1.20;99.90
3478;DHT22;37937;61.490;23.506;2024-03-02T11:53:03;1.20;99.90
3478;DHT22;37937;61.490;23.506;2024-03-02T11:55:31;1.20;99.90
3478;DHT22;37937;61.490;23.506;2024-03-02T11:57:58;1.30;99.90
3478;DHT22;37937;61.490;23.506;2024-03-02T12:00:25;1.30;99.90
3478;DHT22;37937;61.490;23.506;2024-03-02T12:05:45;1.40;99.90
3478;DHT22;37937;61.490;23.506;2024-03-02T12:08:13;1.40;99.90
3478;DHT22;37937;61.490;23.506;2024-03-02T12:10:39;1.30;99.90
3478;DHT22;37937;61.490;23.506;2024-03-02T12:13:05;1.30;99.90
3478;DHT22;37937;61.490;23.506;2024-03-02T12:15:37;1.30;99.90
3478;DHT22;37937;61.490;23.506;2024-03-02T12:18:03;1.30;99.90
3478;DHT22;37937;61.490;23.506;2024-03-02T12:20:30;1.30;99.90
3478;DHT22;37937;61.490;23.506;2024-03-02T12:22:57;1.40;99.90
3478;DHT22;37937;61.490;23.506;2024-03-02T12:25:23;1.30;99.90
3478;DHT22;37937;61.490;23.506;2024-03-02T12:27:59;1.30;99.90
3478;DHT22;37937;61.490;23.506;2024-03-02T12:30:26;1.30;99.90
3478;DHT22;37937;61.490;23.506;2024-03-02T12:32:52;1.30;99.90
3478;DHT22;37937;61.490;23.506;2024-03-02T12:35:17;1.30;99.90
3478;DHT22;37937;61.490;23.506;2024-03-02T12:37:49;1.30;99.90
3478;DHT22;37937;61.490;23.506;2024-03-02T12:40:16;1.30;99.90
3478;DHT22;37937;61.490;23.506;2024-03-02T12:42:43;1.30;99.90
3478;DHT22;37937;61.490;23.506;2024-03-02T12:45:09;1.30;99.90
3478;DHT22;37937;61.490;23.506;2024-03-02T12:47:35;1.30;99.90
3478;DHT22;37937;61.490;23.506;2024-03-02T12:50:01;1.40;99.90
3478;DHT22;37937;61.490;23.506;2024-03-02T12:52:27;1.40;99.90
3478;DHT22;37937;61.490;23.506;2024-03-02T12:54:52;1.50;99.90
3478;DHT22;37937;61.490;23.506;2024-03-02T12:57:24;1.50;99.90
3478;DHT22;37937;61.490;23.506;2024-03-02T12:59:50;1.50;99.90
3478;DHT22;37937;61.490;23.506;2024-03-02T13:02:19;1.60;99.90
3478;DHT22;37937;61.490;23.506;2024-03-02T13:04:44;1.50;99.90
3478;DHT22;37937;61.490;23.506;2024-03-02T13:07:17;1.50;99.90
3478;DHT22;37937;61.490;23.506;2024-03-02T13:09:44;1.50;99.90
3478;DHT22;37937;61.490;23.506;2024-03-02T13:12:10;1.50;99.90
3478;DHT22;37937;61.490;23.506;2024-03-02T13:14:36;1.50;99.90
3478;DHT22;37937;61.490;23.506;2024-03-02T13:17:02;1.50;99.90
3478;DHT22;37937;61.490;23.506;2024-03-02T13:19:30;1.50;99.90
3478;DHT22;37937;61.490;23.506;2024-03-02T13:21:56;1.50;99.90
3478;DHT22;37937;61.490;23.506;2024-03-02T13:24:22;1.50;99.90
3478;DHT22;37937;61.490;23.506;2024-03-02T13:26:51;1.50;99.90
3478;DHT22;37937;61.490;23.506;2024-03-02T13:29:20;1.50;99.90
3478;DHT22;37937;61.490;23.506;2024-03-02T13:31:46;1.50;99.90
3478;DHT22;37937;61.490;23.506;2024-03-02T13:34:12;1.50;99.90
3478;DHT22;37937;61.490;23.506;2024-03-02T13:36:37;1.50;99.90
3478;DHT22;37937;61.490;23.506;2024-03-02T13:39:04;1.50;99.90
3478;DHT22;37937;61.490;23.506;2024-03-02T13:41:31;1.50;99.90
3478;DHT22;37937;61.490;23.506;2024-03-02T13:43:57;1.60;99.90
3478;DHT22;37937;61.490;23.506;2024-03-02T13:46:22;1.60;99.90
3478;DHT22;37937;61.490;23.506;2024-03-02T13:48:48;1.60;99.90
3478;DHT22;37937;61.490;23.506;2024-03-02T13:51:13;1.60;99.90
3478;DHT22;37937;61.490;23.506;2024-03-02T13:53:39;1.60;99.90
3478;DHT22;37937;61.490;23.506;2024-03-02T13:56:05;1.60;99.90
3478;DHT22;37937;61.490;23.506;2024-03-02T13:58:31;1.60;99.90
3478;DHT22;37937;61.490;23.506;2024-03-02T14:00:56;1.60;99.90
3478;DHT22;37937;61.490;23.506;2024-03-02T14:03:22;1.60;99.90
3478;DHT22;37937;61.490;23.506;2024-03-02T14:05:48;1.70;99.90
3478;DHT22;37937;61.490;23.506;2024-03-02T14:08:15;1.70;99.90
3478;DHT22;37937;61.490;23.506;2024-03-02T14:10:41;1.60;99.90
3478;DHT22;37937;61.490;23.506;2024-03-02T14:13:08;1.60;99.90
3478;DHT22;37937;61.490;23.506;2024-03-02T14:15:33;1.60;99.90
3478;DHT22;37937;61.490;23.506;2024-03-02T14:17:59;1.60;99.90
3478;DHT22;37937;61.490;23.506;2024-03-02T14:20:24;1.60;99.90
3478;DHT22;37937;61.490;23.506;2024-03-02T14:22:50;1.60;99.90
3478;DHT22;37937;61.490;23.506;2024-03-02T14:25:16;1.50;99.90
3478;DHT22;37937;61.490;23.506;2024-03-02T14:27:42;1.50;99.90
3478;DHT22;37937;61.490;23.506;2024-03-02T14:30:08;1.50;99.90
3478;DHT22;37937;61.490;23.506;2024-03-02T14:32:33;1.50;99.90
3478;DHT22;37937;61.490;23.506;2024-03-02T14:34:59;1.50;99.90
3478;DHT22;37937;61.490;23.506;2024-03-02T14:37:24;1.50;99.90
3478;DHT22;37937;61.490;23.506;2024-03-02T14:39:50;1.50;99.90
3478;DHT22;37937;61.490;23.506;2024-03-02T14:42:16;1.50;99.90
3478;DHT22;37937;61.490;23.506;2024-03-02T14:44:41;1.40;99.90
3478;DHT22;37937;61.490;23.506;2024-03-02T14:47:07;1.40;99.90
3478;DHT22;37937;61.490;23.506;2024-03-02T14:49:32;1.40;99.90
3478;DHT22;37937;61.490;23.506;2024-03-02T14:52:01;1.30;99.90
3478;DHT22;37937;61.490;23.506;2024-03-02T14:54:26;1.30;99.90
3478;DHT22;37937;61.490;23.506;2024-03-02T14:56:52;1.30;99.90
3478;DHT22;37937;61.490;23.506;2024-03-02T14:59:17;1.20;99.90
3478;DHT22;37937;61.490;23.506;2024-03-02T15:01:43;1.20;99.90
3478;DHT22;37937;61.490;23.506;2024-03-02T15:04:09;1.20;99.90
3478;DHT22;37937;61.490;23.506;2024-03-02T15:06:35;1.20;99.90
3478;DHT22;37937;61.490;23.506;2024-03-02T15:09:00;1.20;99.90
3478;DHT22;37937;61.490;23.506;2024-03-02T15:11:27;1.20;99.90
3478;DHT22;37937;61.490;23.506;2024-03-02T15:13:52;1.30;99.90
3478;DHT22;37937;61.490;23.506;2024-03-02T15:16:18;1.20;99.90
3478;DHT22;37937;61.490;23.506;2024-03-02T15:18:44;1.20;99.90
3478;DHT22;37937;61.490;23.506;2024-03-02T15:21:11;1.20;99.90
3478;DHT22;37937;61.490;23.506;2024-03-02T15:23:36;1.20;99.90
3478;DHT22;37937;61.490;23.506;2024-03-02T15:26:02;1.20;99.90
3478;DHT22;37937;61.490;23.506;2024-03-02T15:28:27;1.20;99.90
3478;DHT22;37937;61.490;23.506;2024-03-02T15:30:53;1.20;99.90
3478;DHT22;37937;61.490;23.506;2024-03-02T15:33:18;1.20;99.90
3478;DHT22;37937;61.490;23.506;2024-03-02T15:35:44;1.20;99.90
3478;DHT22;37937;61.490;23.506;2024-03-02T15:38:10;1.20;99.90
3478;DHT22;37937;61.490;23.506;2024-03-02T15:40:40;1.20;99.90
3478;DHT22;37937;61.490;23.506;2024-03-02T15:43:06;1.20;99.90
3478;DHT22;37937;61.490;23.506;2024-03-02T15:45:31;1.20;99.90
3478;DHT22;37937;61.490;23.506;2024-03-02T15:47:59;1.10;99.90
3478;DHT22;37937;61.490;23.506;2024-03-02T15:50:25;1.10;99.90